Time;durP1;ratioP1;P1;durP2;ratioP2;P2;SDS_P1;SDS_P2;PMS_P1;PMS_P2;Temp;Humidity;BMP_temperature;BMP_pressure;BME280_temperature;BME280_humidity;BME280_pressure;Samples;Min_cycle;Max_cycle;Signal;HPM_P1;HPM_P2
2023/05/31 00:00:25;;;;;;;5.33;4.23;;;;;14.10;97186.00;;;;4999113;28;20198;-87
2023/05/31 00:03:14;;;;;;;5.37;4.27;;;;;14.00;97178.00;;;;5001792;28;20578;-86
2023/05/31 00:06:03;;;;;;;6.87;3.37;;;;;14.10;97176.00;;;;4999398;28;20229;-89
2023/05/31 00:08:53;;;;;;;5.53;3.60;;;;;14.30;97181.00;;;;5007885;28;20230;-86
2023/05/31 00:11:43;;;;;;;4.87;4.40;;;;;14.20;97183.00;;;;5007151;28;20202;-86
2023/05/31 00:14:32;;;;;;;6.67;3.80;;;;;14.30;97180.00;;;;4996356;28;20670;-88
2023/05/31 00:17:21;;;;;;;4.90;3.30;;;;;14.00;97177.00;;;;4997700;28;20230;-87
2023/05/31 00:20:13;;;;;;;8.43;4.13;;;;;14.00;97177.00;;;;4999292;28;20218;-85
2023/05/31 00:23:02;;;;;;;8.80;4.03;;;;;14.00;97176.00;;;;5003622;28;20219;-88
2023/05/31 00:25:52;;;;;;;5.67;3.60;;;;;13.60;97179.00;;;;5002610;28;20479;-87
2023/05/31 00:28:41;;;;;;;7.73;5.00;;;;;13.20;97171.00;;;;4996806;28;20227;-85
2023/05/31 00:31:30;;;;;;;5.97;4.03;;;;;13.40;97178.00;;;;4996614;23;20239;-69
2023/05/31 00:34:20;;;;;;;5.63;4.33;;;;;13.50;97172.00;;;;4962798;28;20251;-69
2023/05/31 00:37:09;;;;;;;5.53;4.73;;;;;13.50;97173.00;;;;4965127;28;20479;-69
2023/05/31 00:39:58;;;;;;;6.67;4.33;;;;;13.20;97163.00;;;;4969938;28;20207;-69
2023/05/31 00:42:48;;;;;;;7.60;4.07;;;;;13.70;97172.00;;;;4969684;28;20826;-68
2023/05/31 00:45:37;;;;;;;4.43;3.97;;;;;14.00;97171.00;;;;4967884;28;20211;-68
2023/05/31 00:48:26;;;;;;;4.33;3.20;;;;;13.80;97172.00;;;;4968101;28;20223;-68
2023/05/31 00:51:15;;;;;;;3.87;3.43;;;;;13.50;97176.00;;;;4970414;28;20206;-67
2023/05/31 00:54:05;;;;;;;7.10;4.07;;;;;13.30;97161.00;;;;4970874;28;20617;-68
2023/05/31 00:56:54;;;;;;;9.53;4.67;;;;;13.20;97163.00;;;;4969194;28;20207;-68
2023/05/31 00:59:45;;;;;;;4.47;4.03;;;;;12.60;97157.00;;;;4971001;28;20215;-68
2023/05/31 01:02:34;;;;;;;5.20;3.97;;;;;12.60;97159.00;;;;4970779;28;20210;-68
2023/05/31 01:05:23;;;;;;;6.20;4.40;;;;;12.90;97168.00;;;;4964527;28;20207;-69
2023/05/31 01:08:14;;;;;;;5.37;4.57;;;;;13.00;97159.00;;;;4959962;28;20226;-68
2023/05/31 01:11:08;;;;;;;4.90;3.23;;;;;12.70;97158.00;;;;4967994;28;20207;-68
2023/05/31 01:14:18;;;;;;;5.30;4.27;;;;;12.30;97154.00;;;;4972423;28;20215;-69
2023/05/31 01:17:14;;;;;;;3.83;3.40;;;;;12.90;97161.00;;;;4973094;28;20203;-70
2023/05/31 01:20:08;;;;;;;8.37;4.00;;;;;13.10;97162.00;;;;4968666;28;20204;-69
2023/05/31 01:23:13;;;;;;;6.77;4.53;;;;;13.30;97166.00;;;;4973927;28;20587;-69
2023/05/31 01:26:27;;;;;;;7.27;3.70;;;;;13.30;97167.00;;;;4968653;28;20215;-69
2023/05/31 01:29:20;;;;;;;4.70;3.80;;;;;13.20;97154.00;;;;4974648;28;20219;-69
2023/05/31 01:32:13;;;;;;;4.20;3.53;;;;;13.20;97154.00;;;;4972414;28;20215;-69
2023/05/31 01:35:02;;;;;;;12.17;3.87;;;;;13.10;97168.00;;;;4973709;28;20917;-68
2023/05/31 01:37:51;;;;;;;5.43;3.97;;;;;13.20;97163.00;;;;4972594;28;20909;-69
2023/05/31 01:40:41;;;;;;;4.87;3.73;;;;;13.10;97165.00;;;;4971273;28;20203;-68
2023/05/31 01:43:32;;;;;;;8.02;4.65;;;;;13.00;97150.00;;;;4970135;28;20396;-69
2023/05/31 01:46:21;;;;;;;5.60;3.87;;;;;12.70;97152.00;;;;4961727;28;20712;-69
2023/05/31 01:49:11;;;;;;;7.40;4.35;;;;;13.00;97153.00;;;;4971550;28;20403;-69
2023/05/31 01:52:01;;;;;;;5.10;4.25;;;;;13.10;97160.00;;;;4972385;28;20444;-70
2023/05/31 01:54:50;;;;;;;9.00;5.77;;;;;13.00;97173.00;;;;4972749;28;20211;-68
2023/05/31 01:57:40;;;;;;;5.10;3.83;;;;;13.00;97168.00;;;;4971718;28;20231;-68
2023/05/31 02:00:31;;;;;;;6.13;3.70;;;;;13.10;97175.00;;;;4963785;28;20219;-68
2023/05/31 02:03:20;;;;;;;4.27;3.20;;;;;12.90;97178.00;;;;4970477;28;20695;-68
2023/05/31 02:06:12;;;;;;;7.23;3.30;;;;;13.10;97175.00;;;;4969587;28;20207;-69
2023/05/31 02:09:01;;;;;;;5.27;3.27;;;;;12.60;97168.00;;;;4973550;28;20227;-68
2023/05/31 02:11:50;;;;;;;5.97;3.50;;;;;12.70;97166.00;;;;4972431;28;20203;-69
2023/05/31 02:14:40;;;;;;;6.43;3.97;;;;;12.70;97167.00;;;;4973020;28;20196;-68
2023/05/31 02:17:33;;;;;;;6.50;4.00;;;;;12.80;97171.00;;;;4971026;28;20203;-69
2023/05/31 02:20:22;;;;;;;6.50;3.60;;;;;12.80;97161.00;;;;4971227;28;20575;-68
2023/05/31 02:23:11;;;;;;;4.73;3.60;;;;;12.70;97161.00;;;;4968899;28;20680;-69
2023/05/31 02:26:00;;;;;;;5.10;3.60;;;;;12.50;97164.00;;;;4972029;28;20207;-67
2023/05/31 02:28:50;;;;;;;4.90;3.53;;;;;12.00;97159.00;;;;4972930;28;20219;-68
2023/05/31 02:31:39;;;;;;;3.57;3.13;;;;;12.50;97162.00;;;;4973270;28;20215;-68
2023/05/31 02:34:30;;;;;;;4.00;3.60;;;;;12.60;97160.00;;;;4972469;28;20693;-68
2023/05/31 02:37:19;;;;;;;9.13;3.70;;;;;12.30;97158.00;;;;4961897;28;20199;-68
2023/05/31 02:40:09;;;;;;;5.03;3.47;;;;;12.30;97164.00;;;;4967708;28;20210;-68
2023/05/31 02:42:58;;;;;;;3.17;2.80;;;;;12.40;97167.00;;;;4972870;28;20207;-68
2023/05/31 02:45:47;;;;;;;4.83;3.20;;;;;12.30;97172.00;;;;4973703;28;20337;-68
2023/05/31 02:48:36;;;;;;;4.07;3.73;;;;;12.50;97170.00;;;;4972317;28;20215;-68
2023/05/31 02:51:26;;;;;;;5.43;3.97;;;;;12.50;97168.00;;;;4968203;28;20208;-67
2023/05/31 02:54:15;;;;;;;5.00;3.30;;;;;12.50;97172.00;;;;4966667;28;20199;-68
2023/05/31 02:57:05;;;;;;;5.47;3.70;;;;;12.40;97177.00;;;;4961813;28;20235;-68
2023/05/31 02:59:58;;;;;;;4.00;3.43;;;;;12.40;97173.00;;;;4971091;28;20606;-68
2023/05/31 03:02:47;;;;;;;4.47;3.20;;;;;12.50;97183.00;;;;4972365;28;20211;-68
2023/05/31 03:05:38;;;;;;;4.77;3.53;;;;;12.20;97183.00;;;;4971240;28;20211;-69
2023/05/31 03:08:28;;;;;;;4.00;3.60;;;;;11.90;97179.00;;;;4970167;28;20307;-67
2023/05/31 03:11:17;;;;;;;5.80;3.93;;;;;12.20;97184.00;;;;4969464;28;20207;-68
2023/05/31 03:14:07;;;;;;;5.30;3.53;;;;;12.20;97176.00;;;;4967962;28;20199;-69
2023/05/31 03:16:56;;;;;;;4.03;3.07;;;;;11.90;97181.00;;;;4971559;28;20208;-67
2023/05/31 03:19:45;;;;;;;7.80;3.53;;;;;11.80;97180.00;;;;4972022;28;20285;-67
2023/05/31 03:22:34;;;;;;;10.13;4.60;;;;;11.50;97186.00;;;;4974342;28;20587;-68
2023/05/31 03:25:25;;;;;;;7.70;4.00;;;;;11.50;97183.00;;;;4967506;28;20703;-68
2023/05/31 03:28:14;;;;;;;6.07;3.90;;;;;11.50;97189.00;;;;4968674;28;20219;-68
2023/05/31 03:31:03;;;;;;;6.10;3.93;;;;;11.40;97187.00;;;;4968938;28;20222;-67
2023/05/31 03:33:53;;;;;;;6.17;3.93;;;;;11.00;97190.00;;;;4966070;28;20716;-67
2023/05/31 03:36:42;;;;;;;9.10;4.43;;;;;11.00;97183.00;;;;4972418;28;20239;-68
2023/05/31 03:39:31;;;;;;;6.40;3.27;;;;;10.70;97184.00;;;;4969725;28;20333;-67
2023/05/31 03:42:22;;;;;;;12.67;4.63;;;;;10.90;97188.00;;;;4965936;28;20578;-67
2023/05/31 03:45:11;;;;;;;10.80;4.47;;;;;10.90;97180.00;;;;4966769;28;20629;-67
2023/05/31 03:48:00;;;;;;;7.47;4.20;;;;;10.90;97184.00;;;;4971180;28;20231;-67
2023/05/31 03:50:49;;;;;;;16.67;4.10;;;;;10.80;97180.00;;;;4971551;28;20208;-69
2023/05/31 03:53:38;;;;;;;9.33;3.33;;;;;10.90;97190.00;;;;4964995;28;20207;-67
2023/05/31 03:56:27;;;;;;;8.37;3.67;;;;;10.60;97183.00;;;;4964305;28;20266;-67
2023/05/31 03:59:18;;;;;;;5.23;3.40;;;;;11.20;97189.00;;;;4967293;28;20290;-67
2023/05/31 04:02:07;;;;;;;9.90;3.70;;;;;10.90;97179.00;;;;4968555;28;20959;-70
2023/05/31 04:04:56;;;;;;;7.20;3.03;;;;;10.60;97179.00;;;;4971262;28;20212;-66
2023/05/31 04:07:46;;;;;;;6.03;3.50;;;;;10.90;97194.00;;;;4968801;28;20199;-66
2023/05/31 04:10:35;;;;;;;6.57;3.67;;;;;11.10;97189.00;;;;4970820;28;20204;-66
2023/05/31 04:13:24;;;;;;;7.67;4.30;;;;;11.60;97194.00;;;;4969704;28;20230;-67
2023/05/31 04:16:15;;;;;;;3.93;3.53;;;;;11.60;97196.00;;;;4966597;28;20206;-68
2023/05/31 04:19:04;;;;;;;5.70;3.60;;;;;11.70;97193.00;;;;4971419;28;20238;-68
2023/05/31 04:21:53;;;;;;;6.27;3.47;;;;;11.70;97198.00;;;;4963776;28;20593;-68
2023/05/31 04:24:42;;;;;;;4.67;3.53;;;;;11.40;97191.00;;;;4963888;28;20249;-68
2023/05/31 04:27:32;;;;;;;5.73;4.77;;;;;11.60;97187.00;;;;4959415;28;20204;-68
2023/05/31 04:30:23;;;;;;;5.93;3.37;;;;;11.60;97188.00;;;;4963155;28;20854;-68
2023/05/31 04:33:17;;;;;;;6.83;4.27;;;;;11.70;97194.00;;;;4969738;28;20222;-69
2023/05/31 04:36:08;;;;;;;7.23;3.97;;;;;11.60;97195.00;;;;4969941;28;20266;-70
2023/05/31 04:38:58;;;;;;;5.53;3.37;;;;;11.70;97194.00;;;;4969561;28;20258;-68
2023/05/31 04:41:47;;;;;;;6.27;4.27;;;;;11.40;97194.00;;;;4967873;28;20203;-68
2023/05/31 04:44:36;;;;;;;7.17;4.20;;;;;11.70;97202.00;;;;4955286;28;20207;-68
2023/05/31 04:47:27;;;;;;;7.27;3.57;;;;;11.70;97192.00;;;;4959389;28;20848;-67
2023/05/31 04:50:18;;;;;;;4.63;3.97;;;;;11.90;97204.00;;;;4958102;28;20266;-68
2023/05/31 04:53:07;;;;;;;8.47;3.57;;;;;11.80;97200.00;;;;4966263;28;20203;-68
2023/05/31 04:55:56;;;;;;;6.83;3.80;;;;;11.70;97206.00;;;;4959349;28;20211;-69
2023/05/31 04:58:46;;;;;;;8.30;4.17;;;;;11.50;97216.00;;;;4968691;28;20599;-70
2023/05/31 05:01:35;;;;;;;8.30;3.37;;;;;11.80;97204.00;;;;4966454;28;20598;-69
2023/05/31 05:04:24;;;;;;;5.77;3.47;;;;;12.00;97208.00;;;;4963033;28;20207;-68
2023/05/31 05:07:16;;;;;;;6.40;3.97;;;;;12.30;97216.00;;;;4960570;28;20211;-68
2023/05/31 05:10:05;;;;;;;8.23;3.30;;;;;12.30;97217.00;;;;4959861;28;20195;-67
2023/05/31 05:12:55;;;;;;;6.53;3.63;;;;;12.60;97211.00;;;;4960312;28;20213;-68
2023/05/31 05:15:44;;;;;;;7.83;3.70;;;;;12.80;97215.00;;;;4959305;28;20208;-69
2023/05/31 05:18:33;;;;;;;8.67;3.27;;;;;13.30;97216.00;;;;4959549;28;20236;-68
2023/05/31 05:21:22;;;;;;;5.80;3.93;;;;;13.40;97216.00;;;;4967479;28;20223;-70
2023/05/31 05:24:13;;;;;;;7.30;4.07;;;;;13.90;97222.00;;;;4966381;28;20263;-69
2023/05/31 05:27:02;;;;;;;4.80;4.07;;;;;13.70;97222.00;;;;4963871;28;20208;-71
2023/05/31 05:29:51;;;;;;;6.77;4.13;;;;;13.30;97204.00;;;;4962899;28;20650;-70
2023/05/31 05:32:40;;;;;;;4.03;3.27;;;;;13.50;97213.00;;;;4961222;28;20223;-70
2023/05/31 05:35:29;;;;;;;6.27;3.67;;;;;13.50;97208.00;;;;4965642;28;20254;-70
2023/05/31 05:38:18;;;;;;;7.73;3.93;;;;;13.70;97222.00;;;;4958735;28;20234;-66
2023/05/31 05:41:12;;;;;;;4.50;3.93;;;;;13.40;97212.00;;;;4964134;28;20298;-68
2023/05/31 05:44:02;;;;;;;4.30;3.30;;;;;13.60;97212.00;;;;4961893;28;20665;-69
2023/05/31 05:46:51;;;;;;;5.07;3.93;;;;;13.40;97212.00;;;;4957394;28;20302;-68
2023/05/31 05:49:40;;;;;;;5.43;4.57;;;;;13.50;97219.00;;;;4961446;28;20602;-68
2023/05/31 05:52:29;;;;;;;9.77;4.40;;;;;13.90;97217.00;;;;4953907;28;20208;-67
2023/05/31 05:55:20;;;;;;;7.10;4.20;;;;;14.10;97208.00;;;;4966022;28;20210;-70
2023/05/31 05:58:10;;;;;;;5.70;4.70;;;;;13.90;97200.00;;;;4965622;28;20764;-70
2023/05/31 06:00:59;;;;;;;8.60;3.70;;;;;14.00;97207.00;;;;4966990;28;20230;-69
2023/05/31 06:03:50;;;;;;;4.00;3.50;;;;;13.90;97202.00;;;;4970373;28;20211;-67
2023/05/31 06:06:39;;;;;;;6.13;4.07;;;;;14.50;97208.00;;;;4970823;28;20715;-68
2023/05/31 06:09:28;;;;;;;8.70;4.20;;;;;14.90;97218.00;;;;4974219;28;20235;-68
2023/05/31 06:12:17;;;;;;;6.13;3.37;;;;;14.60;97202.00;;;;4958198;28;20208;-69
2023/05/31 06:15:09;;;;;;;8.83;3.77;;;;;15.00;97204.00;;;;4972361;28;20207;-67
2023/05/31 06:17:58;;;;;;;6.80;4.60;;;;;15.20;97210.00;;;;4966306;28;20237;-70
2023/05/31 06:20:48;;;;;;;7.03;4.23;;;;;15.30;97210.00;;;;4958318;28;20232;-70
2023/05/31 06:23:37;;;;;;;7.20;4.93;;;;;15.50;97213.00;;;;4973651;28;20210;-68
2023/05/31 06:26:26;;;;;;;12.57;4.83;;;;;15.50;97205.00;;;;4964303;28;20585;-67
2023/05/31 06:29:15;;;;;;;10.83;4.27;;;;;16.00;97191.00;;;;4964180;28;20222;-71
2023/05/31 06:32:07;;;;;;;7.97;4.27;;;;;16.70;97200.00;;;;4965023;28;20215;-70
2023/05/31 06:34:56;;;;;;;6.47;3.77;;;;;16.90;97198.00;;;;4972345;28;20199;-71
2023/05/31 06:37:46;;;;;;;6.37;3.53;;;;;17.20;97199.00;;;;4972818;28;20582;-66
2023/05/31 06:40:38;;;;;;;8.57;4.13;;;;;17.80;97197.00;;;;4969977;28;20262;-70
2023/05/31 06:43:27;;;;;;;6.17;4.50;;;;;18.10;97198.00;;;;4970987;28;20266;-71
2023/05/31 06:46:16;;;;;;;7.93;3.63;;;;;18.10;97200.00;;;;4965829;28;20210;-68
2023/05/31 06:49:06;;;;;;;7.90;4.33;;;;;18.70;97199.00;;;;4965730;28;20227;-69
2023/05/31 06:51:59;;;;;;;6.17;4.03;;;;;19.00;97200.00;;;;4970477;28;20301;-69
2023/05/31 06:54:50;;;;;;;6.37;3.87;;;;;19.30;97199.00;;;;4960724;28;20208;-68
2023/05/31 06:57:39;;;;;;;10.50;4.07;;;;;19.80;97200.00;;;;4967120;28;20216;-68
2023/05/31 07:00:28;;;;;;;10.07;4.93;;;;;20.50;97209.00;;;;4963399;28;20262;-70
2023/05/31 07:03:17;;;;;;;5.27;3.50;;;;;20.90;97204.00;;;;4963641;28;20218;-70
2023/05/31 07:06:08;;;;;;;8.97;3.87;;;;;21.00;97198.00;;;;4966582;28;20199;-70
2023/05/31 07:08:57;;;;;;;7.70;3.60;;;;;21.30;97207.00;;;;4971245;28;20282;-70
2023/05/31 07:11:46;;;;;;;9.77;3.60;;;;;21.60;97201.00;;;;4968570;28;20200;-69
2023/05/31 07:14:35;;;;;;;8.53;4.07;;;;;21.90;97195.00;;;;4965282;28;20211;-69
2023/05/31 07:17:25;;;;;;;7.87;4.37;;;;;22.00;97207.00;;;;4966376;28;20231;-69
2023/05/31 07:20:14;;;;;;;6.07;4.10;;;;;21.70;97211.00;;;;4967774;28;20227;-70
2023/05/31 07:23:04;;;;;;;6.27;3.93;;;;;21.90;97211.00;;;;4971294;28;20240;-70
2023/05/31 07:25:53;;;;;;;10.20;3.70;;;;;22.10;97204.00;;;;4968230;28;20211;-69
2023/05/31 07:28:43;;;;;;;10.43;3.50;;;;;22.50;97218.00;;;;4965874;28;20490;-70
2023/05/31 07:31:32;;;;;;;9.70;3.43;;;;;22.60;97220.00;;;;4965171;28;20203;-69
2023/05/31 07:34:21;;;;;;;7.00;3.70;;;;;22.90;97212.00;;;;4963968;28;20199;-69
2023/05/31 07:37:10;;;;;;;5.00;3.47;;;;;23.40;97203.00;;;;4971778;28;20203;-69
2023/05/31 07:40:00;;;;;;;5.00;2.57;;;;;23.70;97208.00;;;;4970983;28;20211;-69
2023/05/31 07:42:50;;;;;;;6.87;3.90;;;;;23.60;97220.00;;;;4969228;28;20560;-69
2023/05/31 07:45:40;;;;;;;5.53;3.80;;;;;23.30;97222.00;;;;4966248;28;20216;-69
2023/05/31 07:48:32;;;;;;;6.13;2.93;;;;;23.40;97215.00;;;;4966304;28;20290;-69
2023/05/31 07:51:21;;;;;;;6.60;3.33;;;;;23.40;97215.00;;;;4967960;28;20199;-70
2023/05/31 07:54:10;;;;;;;6.17;3.37;;;;;23.50;97218.00;;;;4967067;28;20219;-70
2023/05/31 07:57:01;;;;;;;3.90;3.30;;;;;23.80;97215.00;;;;4968058;28;20710;-70
2023/05/31 07:59:51;;;;;;;7.53;3.83;;;;;24.00;97212.00;;;;4966108;28;20226;-70
2023/05/31 08:02:41;;;;;;;5.63;3.20;;;;;24.70;97198.00;;;;4961611;28;20199;-70
2023/05/31 08:05:30;;;;;;;10.93;4.17;;;;;25.30;97200.00;;;;4964942;28;20207;-70
2023/05/31 08:08:19;;;;;;;10.37;4.07;;;;;25.60;97201.00;;;;4969179;28;20317;-70
2023/05/31 08:11:08;;;;;;;5.77;3.83;;;;;25.60;97201.00;;;;4962226;28;20195;-70
2023/05/31 08:13:59;;;;;;;5.93;4.47;;;;;25.80;97201.00;;;;4971237;28;20207;-70
2023/05/31 08:16:49;;;;;;;5.90;3.80;;;;;24.30;97207.00;;;;4969355;28;20254;-70
2023/05/31 08:19:38;;;;;;;9.33;4.40;;;;;24.90;97219.00;;;;4968196;28;20226;-69
2023/05/31 08:22:27;;;;;;;6.43;4.23;;;;;25.10;97200.00;;;;4963649;28;20255;-70
2023/05/31 08:25:16;;;;;;;8.53;4.00;;;;;24.00;97223.00;;;;4963210;28;20752;-69
2023/05/31 08:28:06;;;;;;;6.50;3.40;;;;;23.60;97223.00;;;;4968871;28;20227;-71
2023/05/31 08:30:56;;;;;;;5.77;3.87;;;;;24.40;97216.00;;;;4969330;28;20206;-69
2023/05/31 08:33:55;;;;;;;11.10;5.60;;;;;24.90;97236.00;;;;4960909;28;20258;-70
2023/05/31 08:36:44;;;;;;;6.57;4.60;;;;;25.00;97228.00;;;;4962943;28;20211;-70
2023/05/31 08:39:33;;;;;;;4.83;3.93;;;;;24.90;97222.00;;;;4967698;28;20657;-70
2023/05/31 08:42:26;;;;;;;8.40;4.03;;;;;25.60;97227.00;;;;4967289;28;20234;-69
2023/05/31 08:45:15;;;;;;;5.30;3.20;;;;;25.50;97211.00;;;;4965727;28;20592;-69
2023/05/31 08:48:10;;;;;;;10.33;5.00;;;;;26.00;97225.00;;;;4967058;28;20685;-70
2023/05/31 08:51:00;;;;;;;5.63;4.03;;;;;26.00;97226.00;;;;4965810;28;20627;-70
2023/05/31 08:53:51;;;;;;;6.27;4.50;;;;;25.60;97227.00;;;;4968072;28;20206;-70
2023/05/31 08:56:40;;;;;;;8.30;4.40;;;;;25.30;97235.00;;;;4966914;28;20569;-71
2023/05/31 08:59:31;;;;;;;7.93;4.60;;;;;25.00;97236.00;;;;4967629;28;20223;-71
2023/05/31 09:02:22;;;;;;;8.83;4.30;;;;;24.30;97237.00;;;;4967876;28;20227;-69
2023/05/31 09:05:12;;;;;;;5.33;4.23;;;;;24.20;97221.00;;;;4964619;28;20204;-68
2023/05/31 09:08:02;;;;;;;6.13;4.63;;;;;23.80;97239.00;;;;4969954;28;20325;-70
2023/05/31 09:10:51;;;;;;;4.57;4.13;;;;;24.60;97244.00;;;;4962802;28;20594;-70
2023/05/31 09:13:41;;;;;;;5.63;4.23;;;;;24.80;97259.00;;;;4965613;28;20203;-71
2023/05/31 09:16:30;;;;;;;5.60;3.83;;;;;24.20;97260.00;;;;4959545;28;20206;-68
2023/05/31 09:19:19;;;;;;;4.47;4.00;;;;;22.90;97245.00;;;;4964956;28;20227;-68
2023/05/31 09:22:09;;;;;;;6.53;4.47;;;;;24.20;97249.00;;;;4962978;28;20220;-68
2023/05/31 09:24:59;;;;;;;8.60;4.97;;;;;24.20;97257.00;;;;4967941;28;20212;-68
2023/05/31 09:27:49;;;;;;;8.37;4.03;;;;;23.70;97252.00;;;;4969097;28;20203;-70
2023/05/31 09:30:38;;;;;;;5.67;4.30;;;;;23.90;97241.00;;;;4973595;28;20687;-70
2023/05/31 09:33:39;;;;;;;9.50;3.80;;;;;23.50;97229.00;;;;4970611;28;20596;-73
2023/05/31 09:36:29;;;;;;;6.80;4.20;;;;;24.00;97231.00;;;;4973139;28;20203;-70
2023/05/31 09:39:21;;;;;;;7.13;4.50;;;;;23.30;97246.00;;;;4971022;28;20223;-68
2023/05/31 09:42:14;;;;;;;8.60;4.70;;;;;24.10;97233.00;;;;4971885;28;20230;-68
2023/05/31 09:45:05;;;;;;;6.70;3.47;;;;;25.10;97244.00;;;;4972919;28;20203;-68
2023/05/31 09:47:54;;;;;;;4.57;4.17;;;;;25.60;97249.00;;;;4971361;28;20727;-68
2023/05/31 09:50:45;;;;;;;5.00;3.63;;;;;25.70;97246.00;;;;4973275;28;20258;-69
2023/05/31 09:53:36;;;;;;;5.87;4.43;;;;;25.70;97247.00;;;;4973942;28;20676;-69
2023/05/31 09:56:29;;;;;;;5.83;4.47;;;;;25.10;97242.00;;;;4970129;28;20211;-71
2023/05/31 09:59:18;;;;;;;4.20;3.40;;;;;24.70;97248.00;;;;4970634;28;20827;-70
2023/05/31 10:02:08;;;;;;;7.30;4.03;;;;;24.10;97247.00;;;;4972782;28;20249;-70
2023/05/31 10:04:57;;;;;;;4.87;3.90;;;;;23.40;97243.00;;;;4973158;28;20210;-69
2023/05/31 10:07:47;;;;;;;4.27;3.57;;;;;24.50;97244.00;;;;4974160;28;20594;-70
2023/05/31 10:10:36;;;;;;;6.20;4.13;;;;;24.80;97241.00;;;;4973808;28;20488;-70
2023/05/31 10:13:28;;;;;;;6.83;3.93;;;;;25.40;97229.00;;;;4972907;28;20203;-71
2023/05/31 10:16:18;;;;;;;4.40;4.00;;;;;26.10;97245.00;;;;4968109;28;20630;-70
2023/05/31 10:19:09;;;;;;;5.20;3.83;;;;;25.70;97241.00;;;;4964280;28;20223;-70
2023/05/31 10:22:00;;;;;;;6.03;4.13;;;;;25.90;97252.00;;;;4968220;28;20234;-71
2023/05/31 10:24:53;;;;;;;4.30;3.60;;;;;26.10;97253.00;;;;4971255;28;20214;-71
2023/05/31 10:27:45;;;;;;;5.97;4.30;;;;;25.50;97242.00;;;;4973223;28;20210;-71
2023/05/31 10:30:38;;;;;;;6.23;3.63;;;;;25.80;97236.00;;;;4971884;28;20203;-71
2023/05/31 10:33:30;;;;;;;4.97;4.07;;;;;25.90;97241.00;;;;4970062;28;20199;-71
2023/05/31 10:36:19;;;;;;;8.77;3.80;;;;;25.40;97248.00;;;;4973454;28;20710;-71
2023/05/31 10:39:16;;;;;;;4.83;4.30;;;;;25.20;97254.00;;;;4970914;28;20223;-71
2023/05/31 10:42:10;;;;;;;5.63;3.90;;;;;25.40;97255.00;;;;4969483;28;20231;-70
2023/05/31 10:45:04;;;;;;;6.27;3.70;;;;;25.40;97252.00;;;;4971833;28;20207;-71
2023/05/31 10:48:11;;;;;;;6.10;4.93;;;;;25.60;97245.00;;;;4973250;28;20246;-70
2023/05/31 10:51:02;;;;;;;8.33;3.67;;;;;25.30;97226.00;;;;4972717;28;20203;-70
2023/05/31 10:53:52;;;;;;;5.27;4.27;;;;;26.40;97230.00;;;;4972273;28;20203;-70
2023/05/31 10:56:41;;;;;;;6.13;3.70;;;;;26.50;97229.00;;;;4970927;28;20207;-70
2023/05/31 10:59:30;;;;;;;6.17;4.60;;;;;27.10;97241.00;;;;4970261;28;20619;-70
2023/05/31 11:02:19;;;;;;;7.50;4.37;;;;;26.90;97239.00;;;;4968413;28;20250;-70
2023/05/31 11:05:26;;;;;;;6.03;4.63;;;;;27.20;97229.00;;;;4971186;28;20257;-70
2023/05/31 11:08:15;;;;;;;5.77;3.93;;;;;27.10;97243.00;;;;4971178;28;20265;-70
2023/05/31 11:11:29;;;;;;;4.50;3.87;;;;;26.90;97246.00;;;;4972348;28;20208;-70
2023/05/31 11:14:28;;;;;;;6.07;4.17;;;;;26.50;97233.00;;;;4952593;28;20215;-71
2023/05/31 11:17:18;;;;;;;6.10;4.70;;;;;26.60;97235.00;;;;4972989;28;20208;-71
2023/05/31 11:20:08;;;;;;;6.87;4.20;;;;;25.20;97223.00;;;;4967379;28;20199;-72
2023/05/31 11:23:28;;;;;;;6.83;4.40;;;;;25.10;97224.00;;;;4967711;28;20242;-69
2023/05/31 11:26:20;;;;;;;6.57;3.83;;;;;26.70;97242.00;;;;4972150;28;20218;-69
2023/05/31 11:29:09;;;;;;;4.37;3.57;;;;;25.20;97238.00;;;;4964454;28;20231;-70
2023/05/31 11:32:01;;;;;;;5.93;3.87;;;;;25.50;97248.00;;;;4970098;28;20221;-71
2023/05/31 11:34:53;;;;;;;4.80;3.83;;;;;25.80;97239.00;;;;4968633;28;20203;-70
2023/05/31 11:37:43;;;;;;;7.00;4.50;;;;;25.70;97247.00;;;;4971644;28;20692;-71
2023/05/31 11:40:35;;;;;;;5.17;4.23;;;;;25.80;97241.00;;;;4970177;28;20570;-70
2023/05/31 11:43:27;;;;;;;7.40;4.07;;;;;25.80;97231.00;;;;4968181;28;20227;-70
2023/05/31 11:46:16;;;;;;;9.23;4.40;;;;;25.60;97235.00;;;;4966925;28;20215;-70
2023/05/31 11:49:05;;;;;;;6.87;3.93;;;;;25.30;97239.00;;;;4966633;28;20219;-70
2023/05/31 11:51:56;;;;;;;8.47;4.73;;;;;25.60;97230.00;;;;4969930;28;20211;-70
2023/05/31 11:54:47;;;;;;;6.53;4.40;;;;;25.30;97229.00;;;;4972009;28;20196;-70
2023/05/31 11:57:44;;;;;;;6.40;3.67;;;;;25.40;97225.00;;;;4966568;28;20261;-70
2023/05/31 12:00:33;;;;;;;7.67;5.03;;;;;25.50;97227.00;;;;4970079;28;20250;-71
2023/05/31 12:03:22;;;;;;;4.90;4.33;;;;;25.80;97226.00;;;;4970984;28;20273;-70
2023/05/31 12:06:11;;;;;;;5.97;3.97;;;;;26.10;97220.00;;;;4968022;28;20920;-70
2023/05/31 12:09:00;;;;;;;8.13;4.53;;;;;24.90;97214.00;;;;4967343;28;20231;-72
2023/05/31 12:11:50;;;;;;;6.53;4.40;;;;;25.00;97203.00;;;;4969040;28;20257;-71
2023/05/31 12:14:50;;;;;;;6.97;4.30;;;;;24.50;97192.00;;;;4971128;28;20743;-71
2023/05/31 12:17:40;;;;;;;5.20;4.70;;;;;24.10;97187.00;;;;4968101;28;20207;-70
2023/05/31 12:20:29;;;;;;;5.63;3.93;;;;;24.50;97189.00;;;;4969665;28;20204;-71
2023/05/31 12:23:19;;;;;;;7.13;4.43;;;;;24.40;97191.00;;;;4961966;28;20250;-70
2023/05/31 12:26:08;;;;;;;6.57;4.70;;;;;25.00;97187.00;;;;4967714;28;20208;-71
2023/05/31 12:28:57;;;;;;;4.20;3.80;;;;;25.10;97185.00;;;;4969779;28;20227;-72
2023/05/31 12:31:48;;;;;;;4.77;4.23;;;;;25.50;97132.00;;;;4970687;28;20245;-72
2023/05/31 12:34:37;;;;;;;9.43;5.00;;;;;25.90;97150.00;;;;4970686;28;20278;-70
2023/05/31 12:37:27;;;;;;;5.83;4.03;;;;;26.80;97142.00;;;;4969490;28;20203;-70
2023/05/31 12:40:19;;;;;;;8.50;4.57;;;;;26.40;97150.00;;;;4966965;28;20207;-71
2023/05/31 12:43:10;;;;;;;4.87;4.37;;;;;25.90;97125.00;;;;4966387;28;20234;-69
2023/05/31 12:45:59;;;;;;;7.80;4.20;;;;;25.70;97116.00;;;;4970135;28;20207;-69
2023/05/31 12:48:50;;;;;;;8.63;4.00;;;;;25.80;97180.00;;;;4968097;28;20614;-70
2023/05/31 12:51:39;;;;;;;9.33;5.73;;;;;25.80;97174.00;;;;4969822;28;20208;-71
2023/05/31 12:54:29;;;;;;;5.83;4.30;;;;;26.10;97163.00;;;;4972320;28;20230;-69
2023/05/31 12:57:18;;;;;;;8.97;5.33;;;;;25.30;97179.00;;;;4968254;28;20223;-73
2023/05/31 13:00:09;;;;;;;6.23;4.73;;;;;25.20;97177.00;;;;4964411;28;20212;-71
2023/05/31 13:02:58;;;;;;;6.97;4.67;;;;;25.50;97188.00;;;;4968614;28;20214;-70
2023/05/31 13:05:49;;;;;;;5.83;4.40;;;;;25.60;97177.00;;;;4966832;28;20661;-70
2023/05/31 13:08:38;;;;;;;7.27;4.57;;;;;25.20;97170.00;;;;4969637;28;20227;-71
2023/05/31 13:11:27;;;;;;;6.37;4.80;;;;;25.10;97162.00;;;;4968841;28;20214;-71
2023/05/31 13:14:18;;;;;;;4.90;4.40;;;;;24.80;97152.00;;;;4970696;28;20584;-70
2023/05/31 13:17:10;;;;;;;8.07;5.53;;;;;25.00;97156.00;;;;4960575;28;20210;-69
2023/05/31 13:19:59;;;;;;;4.90;4.40;;;;;25.20;97139.00;;;;4965148;28;20204;-73
2023/05/31 13:23:00;;;;;;;4.80;4.17;;;;;25.90;97145.00;;;;4962420;28;20262;-73
2023/05/31 13:25:50;;;;;;;9.00;4.50;;;;;25.70;97148.00;;;;4966882;28;20685;-73
2023/05/31 13:28:39;;;;;;;5.27;4.10;;;;;25.40;97143.00;;;;4965745;28;20836;-73
2023/05/31 13:31:28;;;;;;;6.03;3.90;;;;;25.00;97146.00;;;;4968638;28;20714;-72
2023/05/31 13:34:17;;;;;;;4.87;3.90;;;;;25.00;97143.00;;;;4970049;28;20631;-74
2023/05/31 13:37:07;;;;;;;7.43;4.23;;;;;25.30;97148.00;;;;4972697;28;20211;-72
2023/05/31 13:39:57;;;;;;;4.47;3.77;;;;;24.90;97144.00;;;;4967983;28;20242;-73
2023/05/31 13:42:46;;;;;;;6.90;5.67;;;;;24.60;97138.00;;;;4960453;28;20258;-73
2023/05/31 13:45:36;;;;;;;13.00;4.60;;;;;24.60;97143.00;;;;4960647;28;20199;-72
2023/05/31 13:48:25;;;;;;;7.30;4.23;;;;;24.60;97124.00;;;;4965401;28;20256;-73
2023/05/31 13:51:15;;;;;;;7.60;4.30;;;;;25.10;97128.00;;;;4967798;28;20200;-73
2023/05/31 13:54:04;;;;;;;11.27;4.63;;;;;25.10;97117.00;;;;4967716;28;20237;-73
2023/05/31 13:56:58;;;;;;;4.93;4.20;;;;;25.30;97124.00;;;;4963543;28;20698;-73
2023/05/31 13:59:47;;;;;;;5.40;4.77;;;;;24.90;97120.00;;;;4967909;28;20713;-74
2023/05/31 14:02:41;;;;;;;8.13;4.93;;;;;24.70;97109.00;;;;4968967;28;20215;-74
2023/05/31 14:05:30;;;;;;;7.23;4.50;;;;;24.80;97111.00;;;;4968001;28;20226;-73
2023/05/31 14:08:19;;;;;;;6.27;4.33;;;;;24.30;97109.00;;;;4960224;28;20224;-73
2023/05/31 14:11:08;;;;;;;5.33;4.60;;;;;25.60;97105.00;;;;4965531;28;20204;-74